Time;durP1;ratioP1;P1;durP2;ratioP2;P2;SDS_P1;SDS_P2;PMS_P1;PMS_P2;Temp;Humidity;BMP_temperature;BMP_pressure;BME280_temperature;BME280_humidity;BME280_pressure;Samples;Min_cycle;Max_cycle;Signal;HPM_P1;HPM_P2
2022/11/06 00:02:20;;;;;;;11.18;7.35;;;;;;;17.08;51.09;93682.47;5033885;28;20094;-86
2022/11/06 00:04:46;;;;;;;11.48;7.63;;;;;;;17.08;51.03;93682.47;5035322;28;20043;-86
2022/11/06 00:07:11;;;;;;;10.60;7.43;;;;;;;17.11;51.03;93680.72;5050465;28;20450;-86
2022/11/06 00:09:36;;;;;;;10.68;7.07;;;;;;;17.08;50.94;93681.75;5051676;28;20040;-86
2022/11/06 00:12:02;;;;;;;10.98;6.97;;;;;;;17.05;51.09;93683.47;5047009;28;20037;-87
2022/11/06 00:14:27;;;;;;;9.05;6.55;;;;;;;17.08;50.96;93682.47;5053184;28;20040;-86
2022/11/06 00:16:53;;;;;;;9.55;7.07;;;;;;;17.09;51.11;93683.22;5017799;28;20542;-87
2022/11/06 00:19:18;;;;;;;9.68;6.28;;;;;;;17.07;51.05;93677.50;5066059;28;20517;-86
2022/11/06 00:21:43;;;;;;;9.50;6.97;;;;;;;17.05;51.42;93678.00;5050725;28;20268;-86
2022/11/06 00:24:10;;;;;;;9.60;7.00;;;;;;;17.09;51.03;93680.50;5053679;28;21626;-86
2022/11/06 00:26:35;;;;;;;7.40;6.20;;;;;;;17.07;50.77;93682.97;5052743;28;20068;-86
2022/11/06 00:29:01;;;;;;;10.27;6.97;;;;;;;17.07;50.88;93683.72;5025619;28;20130;-86
2022/11/06 00:31:28;;;;;;;10.95;7.72;;;;;;;17.07;51.01;93685.72;5043745;28;20039;-86
2022/11/06 00:33:55;;;;;;;8.88;6.10;;;;;;;17.07;50.82;93685.72;5054048;28;20485;-86
2022/11/06 00:36:21;;;;;;;9.90;6.35;;;;;;;17.06;50.84;93687.69;5032571;28;20044;-86
2022/11/06 00:38:47;;;;;;;11.18;6.97;;;;;;;17.07;50.89;93699.38;5037222;28;20379;-86
2022/11/06 00:41:14;;;;;;;8.93;5.80;;;;;;;17.08;50.88;93695.41;5067532;28;20070;-86
2022/11/06 00:43:40;;;;;;;9.32;6.18;;;;;;;17.07;50.34;93696.63;5017431;28;20060;-86
2022/11/06 00:46:10;;;;;;;8.30;5.53;;;;;;;17.07;50.58;93691.16;5046599;28;20550;-87
2022/11/06 00:48:35;;;;;;;9.50;5.97;;;;;;;17.05;50.60;93693.66;5037262;28;20039;-86
2022/11/06 00:51:05;;;;;;;8.05;6.00;;;;;;;17.06;50.85;93697.88;5041921;28;20044;-86
2022/11/06 00:53:31;;;;;;;10.02;6.20;;;;;;;17.08;50.99;93700.84;5033845;28;20037;-86
2022/11/06 00:56:07;;;;;;;8.90;5.65;;;;;;;17.06;50.76;93697.88;5034031;28;20036;-86
2022/11/06 00:58:33;;;;;;;7.97;5.32;;;;;;;17.04;50.97;93703.81;5033259;28;20093;-86
2022/11/06 01:01:09;;;;;;;10.05;5.80;;;;;;;17.06;50.11;93703.34;5020196;28;20453;-86
2022/11/06 01:03:35;;;;;;;8.18;5.82;;;;;;;17.05;50.45;93704.56;5037049;28;20529;-86
2022/11/06 01:06:05;;;;;;;7.53;5.05;;;;;;;17.04;50.96;93714.00;5053531;28;20124;-86
2022/11/06 01:08:30;;;;;;;7.05;5.28;;;;;;;17.05;50.67;93702.59;5069656;28;20093;-86
2022/11/06 01:10:56;;;;;;;7.00;4.78;;;;;;;17.05;50.85;93715.50;5049772;28;20139;-86
2022/11/06 01:13:21;;;;;;;7.45;5.28;;;;;;;17.08;50.65;93706.31;5046703;28;20032;-86
2022/11/06 01:15:46;;;;;;;8.00;5.30;;;;;;;17.05;50.79;93704.56;5053400;28;20482;-86
2022/11/06 01:18:12;;;;;;;7.05;5.07;;;;;;;17.04;50.52;93703.81;5032564;28;20051;-86
2022/11/06 01:20:37;;;;;;;7.13;5.03;;;;;;;17.04;50.60;93689.44;5056848;28;20055;-86
2022/11/06 01:23:03;;;;;;;7.45;5.22;;;;;;;17.02;50.65;93694.63;5052764;28;20411;-86
2022/11/06 01:25:28;;;;;;;6.70;4.78;;;;;;;17.08;50.84;93693.41;5036041;28;20040;-86
2022/11/06 01:27:53;;;;;;;7.93;4.68;;;;;;;17.04;50.87;93698.38;5070244;28;20036;-87
2022/11/06 01:30:19;;;;;;;6.57;5.00;;;;;;;17.04;50.99;93695.63;5032409;28;20045;-86
2022/11/06 01:32:44;;;;;;;6.88;5.13;;;;;;;17.05;50.98;93693.66;5016664;28;20507;-86
2022/11/06 01:35:10;;;;;;;5.97;4.82;;;;;;;17.04;51.07;93687.44;5016192;28;20036;-86
2022/11/06 01:37:35;;;;;;;6.03;4.65;;;;;;;17.05;50.66;93694.41;5039468;28;20059;-86
2022/11/06 01:40:00;;;;;;;7.68;4.72;;;;;;;17.05;50.92;93693.66;5052370;28;20071;-86
2022/11/06 01:42:26;;;;;;;6.35;4.45;;;;;;;17.02;50.94;93687.19;5051737;28;20024;-86
2022/11/06 01:45:19;;;;;;;6.65;4.40;;;;;;;17.02;50.80;93684.47;5036486;28;20607;-86
2022/11/06 01:47:44;;;;;;;7.15;4.68;;;;;;;17.04;50.48;93679.25;5038609;28;20526;-86
2022/11/06 01:50:09;;;;;;;6.00;4.40;;;;;;;17.04;50.50;93689.44;5048997;28;20040;-86
2022/11/06 01:52:35;;;;;;;7.18;4.38;;;;;;;17.01;50.81;93685.69;5016124;28;20083;-86
2022/11/06 01:55:07;;;;;;;5.35;4.32;;;;;;;17.02;50.66;93687.19;5016750;28;20047;-86
2022/11/06 01:57:33;;;;;;;6.30;4.57;;;;;;;17.05;50.56;93685.44;5033128;28;20086;-87
2022/11/06 01:59:58;;;;;;;6.80;4.28;;;;;;;17.02;50.54;93680.97;5015797;28;20036;-87
2022/11/06 02:02:23;;;;;;;6.13;4.45;;;;;;;17.00;50.71;93680.72;5032950;28;20405;-86
2022/11/06 02:04:49;;;;;;;6.70;4.60;;;;;;;17.00;50.47;93673.28;5049172;28;20048;-86
2022/11/06 02:07:14;;;;;;;6.47;4.05;;;;;;;17.00;50.51;93672.53;5048578;28;20048;-86
2022/11/06 02:09:40;;;;;;;6.97;4.63;;;;;;;17.00;50.67;93669.81;5033019;28;20036;-86
2022/11/06 02:12:14;;;;;;;5.43;3.88;;;;;;;17.02;50.27;93662.59;5028313;28;20048;-87
2022/11/06 02:14:57;;;;;;;5.90;4.40;;;;;;;17.01;50.83;93663.09;5062890;28;20506;-86
2022/11/06 02:17:53;;;;;;;5.35;3.78;;;;;;;17.02;50.38;93662.59;5064997;28;20059;-86
2022/11/06 02:20:31;;;;;;;5.93;3.97;;;;;;;16.99;50.29;93669.06;5048945;28;20158;-86
2022/11/06 02:23:02;;;;;;;6.57;4.43;;;;;;;17.00;50.93;93656.91;5033228;28;20419;-86
2022/11/06 02:25:47;;;;;;;5.72;4.10;;;;;;;17.02;50.68;93659.88;5033817;28;20067;-86
2022/11/06 02:28:26;;;;;;;5.68;4.10;;;;;;;17.01;50.69;93663.09;5018269;28;20028;-87
2022/11/06 02:30:52;;;;;;;4.20;3.13;;;;;;;16.98;50.56;93656.63;5061330;28;20048;-86
2022/11/06 02:33:21;;;;;;;5.18;3.63;;;;;;;17.01;50.49;93658.38;5053483;28;20089;-86
2022/11/06 02:35:52;;;;;;;5.25;3.92;;;;;;;17.00;50.50;93658.88;5056407;28;20048;-86
2022/11/06 02:38:19;;;;;;;;;;;;;;;17.04;50.46;93660.13;5056742;28;20526;-87
2022/11/06 02:40:51;;;;;;;4.80;3.42;;;;;;;17.00;50.53;93669.81;5052515;28;19923;-86
2022/11/06 02:43:16;;;;;;;5.60;3.72;;;;;;;16.98;50.31;93662.09;5052159;28;20043;-86
2022/11/06 02:45:47;;;;;;;4.50;3.35;;;;;;;16.98;50.68;93653.16;5068793;28;20256;-87
2022/11/06 02:48:13;;;;;;;5.07;3.75;;;;;;;16.97;50.70;93651.66;5051930;28;20040;-87
2022/11/06 02:50:41;;;;;;;5.90;3.90;;;;;;;16.98;50.35;93656.63;5062509;28;20113;-87
2022/11/06 02:53:08;;;;;;;5.50;3.72;;;;;;;16.97;50.25;93652.41;5035012;28;20066;-86
2022/11/06 02:55:34;;;;;;;4.07;3.03;;;;;;;16.98;50.55;93658.63;5069240;28;20035;-87
2022/11/06 02:58:03;;;;;;;4.25;3.05;;;;;;;16.98;50.48;93655.91;5088902;28;20132;-86
2022/11/06 03:00:28;;;;;;;5.75;3.58;;;;;;;16.98;50.73;93645.72;5063563;28;20039;-86
2022/11/06 03:03:09;;;;;;;6.00;4.03;;;;;;;16.98;50.42;93655.91;5080765;28;20036;-86
2022/11/06 03:05:41;;;;;;;5.10;3.20;;;;;;;16.99;50.24;93651.94;5053756;28;20645;-86
2022/11/06 03:08:17;;;;;;;4.60;3.45;;;;;;;16.99;50.62;93646.47;5035364;28;20044;-86
2022/11/06 03:10:45;;;;;;;4.72;3.35;;;;;;;17.04;50.57;93653.91;5054553;28;20059;-87
2022/11/06 03:13:20;;;;;;;5.22;3.28;;;;;;;16.97;50.55;93646.94;5055417;28;20043;-86
2022/11/06 03:16:04;;;;;;;3.92;3.10;;;;;;;16.96;50.48;93645.47;5092036;28;20035;-86
2022/11/06 03:18:34;;;;;;;4.00;3.03;;;;;;;16.96;50.52;93639.25;5083891;28;20074;-86
2022/11/06 03:21:14;;;;;;;5.45;3.35;;;;;;;16.97;50.79;93644.22;5055793;28;20044;-86
2022/11/06 03:23:44;;;;;;;3.72;2.90;;;;;;;17.00;50.28;93651.44;5055374;28;20063;-86
2022/11/06 03:26:13;;;;;;;3.10;2.70;;;;;;;16.96;50.06;93644.72;5053724;28;20040;-87
2022/11/06 03:28:42;;;;;;;3.63;2.90;;;;;;;16.97;50.25;93649.69;5055689;28;20055;-86
2022/11/06 03:31:10;;;;;;;3.85;2.80;;;;;;;16.96;50.45;93650.19;5042124;28;20378;-86
2022/11/06 03:33:47;;;;;;;4.30;3.03;;;;;;;16.95;50.77;93638.50;5075972;28;20032;-86
2022/11/06 03:36:20;;;;;;;4.13;3.05;;;;;;;16.96;50.66;93642.72;5071212;28;20028;-86
2022/11/06 03:38:47;;;;;;;5.00;2.72;;;;;;;16.93;50.47;93635.53;5065506;28;20044;-86
2022/11/06 03:41:18;;;;;;;3.80;2.70;;;;;;;16.94;50.41;93644.47;5057780;28;20038;-86
2022/11/06 03:43:44;;;;;;;3.95;3.10;;;;;;;16.95;50.22;93643.22;5076066;28;20032;-87
2022/11/06 03:46:12;;;;;;;4.63;3.20;;;;;;;16.94;50.19;93647.94;5054744;28;20047;-87
2022/11/06 03:48:39;;;;;;;4.47;2.95;;;;;;;16.95;50.30;93643.97;5038960;28;20122;-86
2022/11/06 03:51:17;;;;;;;4.65;2.80;;;;;;;16.96;50.21;93644.72;5054491;28;20513;-86
2022/11/06 03:53:50;;;;;;;3.55;2.47;;;;;;;16.94;50.64;93645.22;5055607;28;20030;-86
2022/11/06 03:56:42;;;;;;;4.05;2.97;;;;;;;16.94;50.31;93636.28;5045914;28;20085;-86
2022/11/06 03:59:07;;;;;;;4.32;2.72;;;;;;;16.94;49.63;93642.47;5055738;28;20032;-87
2022/11/06 04:01:35;;;;;;;3.90;2.83;;;;;;;16.95;49.90;93637.75;5071059;28;20521;-86
2022/11/06 04:04:05;;;;;;;4.53;2.97;;;;;;;16.93;50.43;93638.25;5074513;28;20040;-86
2022/11/06 04:06:37;;;;;;;4.47;3.00;;;;;;;16.94;49.86;93637.03;5084718;28;20032;-88
2022/11/06 04:14:32;;;;;;;2.85;2.30;;;;;;;16.92;50.01;93646.94;5072459;28;20456;-86
2022/11/06 04:17:00;;;;;;;3.15;2.42;;;;;;;16.93;50.16;93653.91;5045962;28;20497;-86
2022/11/06 04:19:25;;;;;;;3.03;2.53;;;;;;;16.94;49.64;93647.19;5053832;28;20462;-86
2022/11/06 04:22:26;;;;;;;3.50;2.70;;;;;;;16.93;50.12;93648.44;5037633;28;20040;-86
2022/11/06 04:28:00;;;;;;;3.08;2.38;;;;;;;16.95;50.39;93648.69;5092222;28;20080;-86
2022/11/06 04:30:26;;;;;;;3.15;2.55;;;;;;;16.95;49.62;93649.44;5090211;28;20068;-86
2022/11/06 04:33:11;;;;;;;3.42;2.33;;;;;;;16.92;50.31;93644.97;5059657;28;20047;-86
2022/11/06 04:35:42;;;;;;;3.00;2.28;;;;;;;16.94;49.85;93641.72;5037735;28;20071;-87
2022/11/06 04:38:26;;;;;;;4.57;2.50;;;;;;;16.92;50.33;93647.69;5106966;28;20498;-86
2022/11/06 04:41:11;;;;;;;3.33;2.40;;;;;;;16.93;50.93;93648.44;5109058;28;20106;-86
2022/11/06 04:43:44;;;;;;;4.07;2.75;;;;;;;16.91;50.28;93648.94;5055187;28;20047;-86
2022/11/06 04:46:11;;;;;;;3.00;2.40;;;;;;;16.93;50.31;93649.19;5071155;28;20036;-86
2022/11/06 04:48:37;;;;;;;2.17;1.83;;;;;;;16.91;50.26;93645.44;5070613;28;20036;-86
2022/11/06 04:51:03;;;;;;;2.75;2.20;;;;;;;16.92;50.42;93646.94;5052805;28;20028;-86
2022/11/06 04:53:29;;;;;;;3.20;2.10;;;;;;;16.92;50.24;93642.22;5068935;28;20379;-86
2022/11/06 04:55:58;;;;;;;3.90;2.50;;;;;;;16.89;50.58;93645.94;5070664;28;20502;-86
2022/11/06 04:58:23;;;;;;;3.38;1.90;;;;;;;16.91;50.50;93640.75;5038470;28;20043;-86
2022/11/06 05:00:49;;;;;;;2.95;2.10;;;;;;;16.89;49.89;93640.47;5043434;28;20105;-86
2022/11/06 05:03:14;;;;;;;2.97;2.13;;;;;;;16.92;49.85;93633.28;5065962;28;20039;-86
2022/11/06 05:05:40;;;;;;;3.47;2.50;;;;;;;16.91;50.07;93640.75;5043521;28;20079;-86
2022/11/06 05:08:05;;;;;;;2.33;1.83;;;;;;;16.92;49.93;93638.75;5067977;28;20035;-86
2022/11/06 05:10:31;;;;;;;2.85;2.25;;;;;;;16.93;50.01;93637.50;5073684;28;20088;-87
2022/11/06 05:12:57;;;;;;;2.95;2.00;;;;;;;16.91;49.49;93635.28;5073197;28;20043;-87
2022/11/06 05:15:22;;;;;;;2.88;2.08;;;;;;;16.90;49.59;93630.31;5072376;28;20544;-86
2022/11/06 05:17:48;;;;;;;2.78;2.17;;;;;;;16.88;49.88;93625.38;5064538;28;20036;-86
2022/11/06 05:20:13;;;;;;;3.75;2.30;;;;;;;16.90;49.85;93622.84;5089769;28;20024;-87
2022/11/06 05:22:59;;;;;;;3.70;2.40;;;;;;;16.90;49.41;93627.56;5073041;28;20063;-86
2022/11/06 05:25:28;;;;;;;2.42;1.88;;;;;;;16.89;50.03;93635.03;5061168;28;20070;-86
2022/11/06 05:27:53;;;;;;;2.80;1.90;;;;;;;16.90;50.02;93630.31;5073229;28;20147;-87
2022/11/06 05:30:19;;;;;;;3.78;1.98;;;;;;;16.89;50.04;93634.31;5067236;28;20582;-86
2022/11/06 05:32:44;;;;;;;2.92;2.20;;;;;;;16.90;49.81;93622.13;5040577;28;20040;-86
2022/11/06 05:35:09;;;;;;;3.95;2.45;;;;;;;16.89;49.89;93631.56;5065790;28;20040;-86
2022/11/06 05:37:35;;;;;;;2.95;2.17;;;;;;;16.89;49.70;93637.75;5036562;28;20510;-86
2022/11/06 05:40:00;;;;;;;3.33;2.38;;;;;;;16.86;49.38;93621.63;5072072;28;20052;-86
2022/11/06 05:42:26;;;;;;;2.70;2.08;;;;;;;16.88;49.43;93619.16;5056231;28;20476;-86
2022/11/06 05:44:51;;;;;;;2.35;1.65;;;;;;;16.89;49.92;93631.56;5053125;28;20085;-86
2022/11/06 05:47:17;;;;;;;2.70;2.17;;;;;;;16.86;49.29;93635.28;5052313;28;20434;-86
2022/11/06 05:49:42;;;;;;;2.80;2.15;;;;;;;16.88;50.07;93630.09;5067351;28;20491;-86
2022/11/06 05:52:07;;;;;;;3.03;2.50;;;;;;;16.87;49.56;93632.06;5062536;28;20044;-86
2022/11/06 05:54:33;;;;;;;3.20;2.10;;;;;;;16.88;49.69;93633.56;5069634;28;20035;-86
2022/11/06 05:56:58;;;;;;;2.72;2.10;;;;;;;16.88;49.28;93627.34;5069127;28;20109;-87
2022/11/06 05:59:24;;;;;;;2.63;1.80;;;;;;;16.88;49.81;93627.34;5070858;28;20043;-86
2022/11/06 06:01:49;;;;;;;2.42;2.05;;;;;;;16.87;49.27;93626.59;5046940;28;20044;-86
2022/11/06 06:04:14;;;;;;;2.40;1.88;;;;;;;16.88;49.76;93630.09;5063280;28;20345;-86
2022/11/06 06:06:40;;;;;;;2.67;2.08;;;;;;;16.85;49.39;93637.28;5040556;28;20036;-86
2022/11/06 06:09:05;;;;;;;2.53;1.75;;;;;;;16.86;49.77;93633.31;5065078;28;20445;-86
2022/11/06 06:11:30;;;;;;;1.98;1.52;;;;;;;16.86;50.29;93636.03;5049365;28;20036;-86
2022/11/06 06:13:56;;;;;;;2.33;1.75;;;;;;;16.86;49.88;93636.03;5067719;28;20037;-87
2022/11/06 06:16:21;;;;;;;3.28;2.20;;;;;;;16.87;49.84;93642.25;5086115;28;20039;-86
2022/11/06 06:18:50;;;;;;;2.30;1.83;;;;;;;16.85;49.69;93633.81;5060247;28;20044;-86
2022/11/06 06:21:15;;;;;;;2.35;1.90;;;;;;;16.85;49.73;93647.44;5048368;28;20043;-87
2022/11/06 06:23:41;;;;;;;2.95;1.90;;;;;;;16.87;49.94;93642.25;5044544;28;20037;-86
2022/11/06 06:26:06;;;;;;;2.58;1.90;;;;;;;16.86;50.09;93635.28;5065145;28;20070;-86
2022/11/06 06:28:32;;;;;;;3.17;2.13;;;;;;;16.87;49.88;93643.00;5055344;28;20037;-86
2022/11/06 06:30:57;;;;;;;2.65;1.83;;;;;;;16.86;49.19;93640.75;5076974;28;20097;-86
2022/11/06 06:33:22;;;;;;;2.92;1.77;;;;;;;16.85;49.57;93648.19;5068651;28;20040;-86
2022/11/06 06:35:48;;;;;;;2.33;1.90;;;;;;;16.88;49.96;93644.47;5052909;28;20036;-87
2022/11/06 06:38:13;;;;;;;3.15;1.95;;;;;;;16.85;49.86;93628.34;5059564;28;20249;-86
2022/11/06 06:40:39;;;;;;;2.08;1.40;;;;;;;16.85;50.19;93631.06;5048230;28;20046;-86
2022/11/06 06:43:04;;;;;;;2.72;1.75;;;;;;;16.83;49.72;93631.56;5025635;28;20064;-87
2022/11/06 06:45:29;;;;;;;2.45;1.63;;;;;;;16.84;50.08;93635.78;5049520;28;20605;-87
2022/11/06 06:48:00;;;;;;;2.40;1.90;;;;;;;16.85;49.50;93634.53;5060687;28;20070;-86
2022/11/06 06:50:25;;;;;;;2.22;1.67;;;;;;;16.87;49.64;93634.06;5052895;28;20490;-86
2022/11/06 06:52:55;;;;;;;3.17;2.17;;;;;;;16.86;50.23;93632.56;5028635;28;20048;-86
2022/11/06 06:55:20;;;;;;;2.08;1.40;;;;;;;16.87;50.12;93631.31;5055867;28;20049;-86
2022/11/06 06:57:45;;;;;;;2.28;1.63;;;;;;;16.86;49.89;93641.50;5055963;28;20398;-86
2022/11/06 07:00:11;;;;;;;2.80;1.65;;;;;;;16.87;50.18;93636.78;5055424;28;20032;-86
2022/11/06 07:02:36;;;;;;;2.72;1.55;;;;;;;16.85;49.80;93640.00;5067975;28;20052;-86
2022/11/06 07:05:02;;;;;;;2.08;1.60;;;;;;;16.85;50.06;93645.47;5036311;28;20036;-86
2022/11/06 07:07:27;;;;;;;3.60;1.77;;;;;;;16.84;50.04;93641.25;5018871;28;20041;-86
2022/11/06 07:09:53;;;;;;;3.72;2.05;;;;;;;16.84;50.30;93633.06;5024885;28;20044;-86
2022/11/06 07:12:18;;;;;;;2.03;1.42;;;;;;;16.84;50.18;93646.69;5053838;28;20040;-86
2022/11/06 07:14:44;;;;;;;2.22;1.65;;;;;;;16.83;49.68;93641.75;5036052;28;20056;-86
2022/11/06 07:17:09;;;;;;;2.28;1.55;;;;;;;16.86;50.16;93646.22;5069675;28;20518;-86
2022/11/06 07:19:34;;;;;;;2.97;1.52;;;;;;;16.86;49.83;93638.75;5068324;28;20097;-87
2022/11/06 07:22:00;;;;;;;2.00;1.27;;;;;;;16.85;50.22;93637.28;5019262;28;20051;-86
2022/11/06 07:24:25;;;;;;;2.08;1.50;;;;;;;16.85;49.88;93634.53;5036309;28;20051;-86
2022/11/06 07:26:50;;;;;;;1.80;1.30;;;;;;;16.85;49.64;93636.53;5055652;28;20044;-86
2022/11/06 07:29:16;;;;;;;2.28;1.60;;;;;;;16.84;49.92;93638.50;5027654;28;20048;-85
2022/11/06 07:31:41;;;;;;;1.88;1.42;;;;;;;16.88;50.09;93641.75;5049433;28;20106;-86
2022/11/06 07:34:07;;;;;;;2.13;1.30;;;;;;;16.84;49.79;93637.78;5068215;28;20040;-86
2022/11/06 07:36:34;;;;;;;4.25;2.00;;;;;;;16.84;50.16;93648.69;5052102;28;20404;-86
2022/11/06 07:38:59;;;;;;;3.72;1.77;;;;;;;16.85;50.11;93642.75;5080623;28;20113;-86
2022/11/06 07:41:24;;;;;;;1.98;1.58;;;;;;;16.86;49.98;93638.03;5068276;28;20430;-87
2022/11/06 07:43:50;;;;;;;3.20;1.67;;;;;;;16.83;49.87;93634.28;5064337;28;20036;-86
2022/11/06 07:46:16;;;;;;;2.42;1.70;;;;;;;16.84;49.86;93640.50;5071437;28;20040;-86
2022/11/06 07:48:41;;;;;;;2.38;2.05;;;;;;;16.84;49.96;93641.25;5088427;28;20040;-86
2022/11/06 07:51:08;;;;;;;2.58;1.52;;;;;;;16.83;49.83;93639.00;5054324;28;20032;-86
2022/11/06 07:53:33;;;;;;;2.03;1.45;;;;;;;16.85;50.29;93642.00;5061323;28;20037;-86
2022/11/06 07:55:59;;;;;;;1.95;1.60;;;;;;;16.82;49.80;93632.81;5071931;28;20094;-87
2022/11/06 07:58:24;;;;;;;2.53;1.73;;;;;;;16.85;50.04;93634.53;5049621;28;20407;-86
2022/11/06 08:00:52;;;;;;;2.65;1.85;;;;;;;16.83;49.83;93633.53;5040248;28;20053;-87
2022/11/06 08:03:18;;;;;;;2.22;1.35;;;;;;;16.84;50.07;93618.66;5054517;28;20047;-86
2022/11/06 08:05:43;;;;;;;2.33;1.50;;;;;;;16.84;50.05;93626.84;5054616;28;20123;-85
2022/11/06 08:08:09;;;;;;;2.35;1.60;;;;;;;16.84;50.16;93627.59;5067252;28;20040;-86
2022/11/06 08:10:39;;;;;;;1.80;1.40;;;;;;;16.84;49.63;93624.88;5051322;28;20037;-86
2022/11/06 08:13:05;;;;;;;2.60;1.77;;;;;;;16.86;49.96;93622.38;5051319;28;20093;-86
2022/11/06 08:15:30;;;;;;;2.70;1.60;;;;;;;16.84;49.90;93626.84;5052428;28;20036;-86
2022/11/06 08:17:58;;;;;;;2.35;1.77;;;;;;;16.84;49.99;93626.84;5071069;28;20043;-86
2022/11/06 08:20:23;;;;;;;2.28;1.55;;;;;;;16.86;49.78;93632.56;5071017;28;20130;-87
2022/11/06 08:22:48;;;;;;;2.45;1.67;;;;;;;16.85;49.61;93622.88;5070691;28;20105;-86
2022/11/06 08:25:14;;;;;;;1.52;1.10;;;;;;;16.84;50.08;93627.59;5067214;28;20040;-87
2022/11/06 08:27:39;;;;;;;2.05;1.60;;;;;;;16.84;49.85;93615.94;5035985;28;20040;-86
2022/11/06 08:30:05;;;;;;;1.80;1.30;;;;;;;16.84;49.69;93622.13;5032516;28;20500;-86
2022/11/06 08:32:31;;;;;;;3.42;1.50;;;;;;;16.83;49.88;93619.91;5046328;28;20031;-86
2022/11/06 08:34:56;;;;;;;2.90;1.60;;;;;;;16.82;49.90;93616.41;5053699;28;20200;-86
2022/11/06 08:37:22;;;;;;;2.47;1.60;;;;;;;16.84;49.57;93607.75;5037077;28;20427;-86
2022/11/06 08:39:47;;;;;;;1.85;1.40;;;;;;;16.83;49.98;93612.44;5088228;28;20048;-86
2022/11/06 08:42:12;;;;;;;1.67;1.33;;;;;;;16.85;50.08;93601.03;5029482;28;20040;-86
2022/11/06 08:44:38;;;;;;;2.15;1.70;;;;;;;16.88;50.09;93605.50;5049556;28;20448;-86
2022/11/06 08:47:04;;;;;;;2.38;1.52;;;;;;;16.85;50.17;93609.22;5037061;28;20044;-85
2022/11/06 08:49:29;;;;;;;2.33;1.67;;;;;;;16.84;50.00;93602.28;5036788;28;20498;-87
2022/11/06 08:51:54;;;;;;;1.95;1.73;;;;;;;16.85;49.98;93606.50;5053559;28;20041;-86
2022/11/06 08:54:20;;;;;;;2.22;1.55;;;;;;;16.83;50.14;93601.53;5040702;28;20051;-86
2022/11/06 08:56:45;;;;;;;2.45;1.67;;;;;;;16.82;49.88;93602.78;5017657;28;20024;-86
2022/11/06 08:59:11;;;;;;;1.48;1.23;;;;;;;16.84;50.34;93605.00;5025296;28;20399;-86
2022/11/06 09:01:36;;;;;;;2.05;1.38;;;;;;;16.84;49.82;93603.03;5029598;28;20082;-86
2022/11/06 09:04:02;;;;;;;2.83;1.92;;;;;;;16.85;50.11;93590.13;5059131;28;20328;-86
2022/11/06 09:06:27;;;;;;;2.10;1.40;;;;;;;16.85;50.12;93592.84;5036785;28;20032;-86
2022/11/06 09:08:52;;;;;;;2.65;1.40;;;;;;;16.83;50.18;93587.88;5045086;28;20052;-86
2022/11/06 09:11:18;;;;;;;1.65;1.10;;;;;;;16.83;49.97;93582.41;5049651;28;20036;-86
2022/11/06 09:13:43;;;;;;;1.75;1.25;;;;;;;16.83;49.98;93587.88;5033450;28;20059;-86
2022/11/06 09:16:09;;;;;;;2.00;1.42;;;;;;;16.84;50.27;93578.44;5016492;28;20082;-86
2022/11/06 09:18:34;;;;;;;2.13;1.40;;;;;;;16.82;49.92;93580.94;5042275;28;20414;-86
2022/11/06 09:20:59;;;;;;;1.55;1.33;;;;;;;16.83;50.25;93579.69;5053618;28;20055;-87
2022/11/06 09:23:25;;;;;;;1.27;1.17;;;;;;;16.85;50.03;93590.13;5049478;28;20045;-86
2022/11/06 09:25:50;;;;;;;1.58;1.13;;;;;;;16.84;49.76;93591.34;5033864;28;20049;-86
2022/11/06 09:28:16;;;;;;;3.17;1.67;;;;;;;16.84;50.02;93586.63;5034586;28;20024;-86
2022/11/06 09:30:41;;;;;;;1.90;1.70;;;;;;;16.85;49.82;93579.19;5035721;28;20051;-86
2022/11/06 09:33:06;;;;;;;2.03;1.50;;;;;;;16.84;49.82;93567.53;5048739;28;20041;-87
2022/11/06 09:35:32;;;;;;;1.95;1.30;;;;;;;16.84;50.02;93574.97;5050262;28;20041;-86
2022/11/06 09:38:02;;;;;;;1.83;1.17;;;;;;;16.86;50.09;93573.25;5033811;28;20044;-86
2022/11/06 09:40:50;;;;;;;1.95;1.38;;;;;;;16.86;50.29;93575.97;5068329;28;20555;-87
2022/11/06 09:43:23;;;;;;;1.45;1.23;;;;;;;16.85;49.86;93574.47;5053416;28;20046;-86
2022/11/06 09:45:48;;;;;;;1.92;1.33;;;;;;;16.86;50.30;93573.25;5069640;28;20036;-86
2022/11/06 09:48:26;;;;;;;1.77;1.27;;;;;;;16.85;49.97;93577.22;5069194;28;20040;-85
2022/11/06 09:51:02;;;;;;;1.67;1.25;;;;;;;16.86;49.82;93575.97;5037450;28;20067;-86
2022/11/06 09:53:35;;;;;;;1.52;1.15;;;;;;;16.86;49.87;93578.69;5032978;28;20506;-86
2022/11/06 09:56:01;;;;;;;1.60;1.25;;;;;;;16.86;50.11;93572.50;5053791;28;20052;-86
2022/11/06 09:58:35;;;;;;;1.10;1.00;;;;;;;16.88;50.05;93580.94;5052036;28;20028;-86
2022/11/06 10:01:05;;;;;;;1.67;1.30;;;;;;;16.89;50.08;93571.50;5039393;28;20066;-86
2022/11/06 10:03:55;;;;;;;1.88;1.55;;;;;;;16.90;50.32;93564.78;5034516;28;20535;-85
2022/11/06 10:06:22;;;;;;;1.77;1.17;;;;;;;16.88;50.14;93559.09;5052771;28;20036;-86
2022/11/06 10:08:48;;;;;;;1.80;1.40;;;;;;;16.86;50.26;93551.41;5052815;28;20028;-86
2022/11/06 10:11:13;;;;;;;1.33;1.00;;;;;;;16.87;50.08;93543.94;5051867;28;20077;-86
2022/11/06 10:13:49;;;;;;;2.28;1.10;;;;;;;16.91;49.76;93539.72;5084873;28;20402;-86
2022/11/06 10:16:29;;;;;;;1.70;1.10;;;;;;;16.89;49.83;93534.00;5048490;28;20129;-86
2022/11/06 10:19:10;;;;;;;1.50;1.30;;;;;;;16.89;50.33;93533.28;5041104;28;20451;-88
2022/11/06 10:21:58;;;;;;;1.00;0.90;;;;;;;16.90;49.83;93540.94;5033917;28;20052;-86
2022/11/06 10:25:00;;;;;;;1.45;1.30;;;;;;;16.89;50.10;93531.25;5042009;28;20051;-87
2022/11/06 10:27:39;;;;;;;1.20;0.88;;;;;;;16.89;49.72;93536.72;5055469;28;20024;-86
2022/11/06 10:30:15;;;;;;;1.42;1.15;;;;;;;16.90;50.19;93540.94;5037108;28;20058;-86
2022/11/06 10:33:02;;;;;;;1.70;1.20;;;;;;;16.91;49.66;93528.03;5057085;28;20032;-85
2022/11/06 10:35:34;;;;;;;1.38;0.90;;;;;;;16.90;50.13;93505.44;5068607;28;20130;-86
2022/11/06 10:38:00;;;;;;;1.73;1.10;;;;;;;16.91;50.07;93501.47;5069469;28;20044;-86
2022/11/06 10:40:27;;;;;;;1.80;1.33;;;;;;;16.89;50.01;93503.97;5040307;28;20044;-86
2022/11/06 10:43:07;;;;;;;1.30;0.90;;;;;;;16.90;50.22;93508.19;5056831;28;20479;-86
2022/11/06 10:45:33;;;;;;;1.88;1.00;;;;;;;16.93;49.76;93504.47;5048201;28;20037;-86
2022/11/06 10:48:04;;;;;;;1.52;1.10;;;;;;;16.90;50.02;93489.06;5037023;28;20087;-86
2022/11/06 10:50:36;;;;;;;1.15;0.93;;;;;;;16.89;49.95;93482.13;5024414;28;20029;-86
2022/11/06 10:53:07;;;;;;;1.00;0.90;;;;;;;16.89;50.21;93487.56;5022231;28;20036;-86
2022/11/06 10:55:59;;;;;;;1.40;1.00;;;;;;;16.91;49.86;93481.63;5047191;28;20154;-86
2022/11/06 10:58:29;;;;;;;1.42;1.00;;;;;;;16.90;49.79;93478.16;5072327;28;20261;-86
2022/11/06 11:00:59;;;;;;;1.60;1.10;;;;;;;16.90;49.92;93475.41;5046713;28;20510;-86
2022/11/06 11:03:29;;;;;;;1.30;0.90;;;;;;;16.90;49.75;93463.75;5035830;28;20044;-86
2022/11/06 11:05:55;;;;;;;;;;;;;;;16.94;49.75;93459.53;5036525;28;20040;-86
2022/11/06 11:08:29;;;;;;;1.25;1.15;;;;;;;16.93;49.92;93455.31;5052029;28;20397;-86
2022/11/06 11:11:01;;;;;;;1.60;1.23;;;;;;;16.90;50.04;93450.84;5070928;28;20101;-86
2022/11/06 11:13:26;;;;;;;1.20;0.98;;;;;;;16.91;49.65;93446.88;5071739;28;20043;-86
2022/11/06 11:15:52;;;;;;;1.13;0.80;;;;;;;16.91;50.13;93452.31;5035654;28;20041;-86
2022/11/06 11:18:21;;;;;;;1.02;0.75;;;;;;;16.91;49.68;93448.84;5043087;28;20047;-86
2022/11/06 11:20:48;;;;;;;1.13;0.82;;;;;;;16.91;49.95;93429.75;5048969;28;20047;-86
2022/11/06 11:23:17;;;;;;;0.93;0.85;;;;;;;16.92;49.99;93431.97;5068670;28;20491;-86
2022/11/06 11:25:44;;;;;;;1.35;1.05;;;;;;;16.92;49.91;93428.50;5043105;28;20445;-87
2022/11/06 11:28:20;;;;;;;1.73;1.13;;;;;;;16.92;50.13;93426.50;5052675;28;20152;-86
2022/11/06 11:30:50;;;;;;;0.77;0.73;;;;;;;16.91;50.19;93414.09;5060767;28;20060;-86
2022/11/06 11:33:18;;;;;;;1.33;0.90;;;;;;;16.94;49.95;93407.66;5054419;28;20100;-86
2022/11/06 11:35:46;;;;;;;1.60;1.20;;;;;;;16.91;49.96;93408.63;5054510;28;20066;-87
2022/11/06 11:38:13;;;;;;;1.17;1.05;;;;;;;16.95;50.13;93392.00;5075150;28;20036;-87
2022/11/06 11:40:38;;;;;;;1.25;0.80;;;;;;;16.93;49.92;93387.03;5058050;28;20094;-86
2022/11/06 11:43:25;;;;;;;0.90;0.90;;;;;;;16.93;49.81;93378.09;5057524;28;20417;-87
2022/11/06 11:46:01;;;;;;;1.17;0.82;;;;;;;16.93;50.13;93384.31;5079071;28;20502;-86
2022/11/06 11:48:26;;;;;;;1.20;1.10;;;;;;;16.95;50.29;93378.34;5074887;28;20428;-86
2022/11/06 11:50:51;;;;;;;0.82;0.68;;;;;;;16.94;49.92;93374.88;5075598;28;20039;-86